Time;durP1;ratioP1;P1;durP2;ratioP2;P2;SDS_P1;SDS_P2;PMS_P1;PMS_P2;Temp;Humidity;BMP_temperature;BMP_pressure;BME280_temperature;BME280_humidity;BME280_pressure;Samples;Min_cycle;Max_cycle;Signal;HPM_P1;HPM_P2
2023/07/15 00:02:20;;;;;;;6.05;2.65;;;;;;;27.90;47.84;100794.88;5100602;28;20051;-78
2023/07/15 00:05:05;;;;;;;2.83;1.90;;;;;;;27.91;48.27;100785.25;5101370;28;20062;-78
2023/07/15 00:07:50;;;;;;;5.78;2.20;;;;;;;27.93;48.21;100788.44;5105701;28;20047;-78
2023/07/15 00:10:37;;;;;;;7.60;2.40;;;;;;;27.83;48.44;100783.06;5100903;28;20062;-78
2023/07/15 00:13:21;;;;;;;1.95;1.42;;;;;;;27.82;48.18;100781.47;5100043;28;20067;-78
2023/07/15 00:16:08;;;;;;;18.48;2.60;;;;;;;27.84;48.71;100785.41;5105340;28;20405;-78
2023/07/15 00:18:53;;;;;;;4.13;1.90;;;;;;;27.82;48.46;100790.66;5100964;28;20114;-78
2023/07/15 00:21:38;;;;;;;5.15;2.40;;;;;;;27.80;48.57;100784.69;5099731;28;20067;-78
2023/07/15 00:24:23;;;;;;;6.95;2.00;;;;;;;27.81;48.66;100785.50;5099657;28;20114;-78
2023/07/15 00:27:08;;;;;;;6.88;2.00;;;;;;;27.81;48.93;100789.06;5100826;28;20043;-78
2023/07/15 00:29:53;;;;;;;4.88;1.85;;;;;;;27.81;49.04;100785.50;5101827;28;20062;-78
2023/07/15 00:32:38;;;;;;;8.20;2.05;;;;;;;27.77;49.11;100779.97;5101057;28;20157;-78
2023/07/15 00:35:28;;;;;;;5.75;2.10;;;;;;;27.78;48.59;100781.56;5099955;28;20048;-78
2023/07/15 00:38:13;;;;;;;5.22;1.83;;;;;;;27.78;48.89;100778.78;5087394;28;20055;-78
2023/07/15 00:40:58;;;;;;;9.07;1.92;;;;;;;27.76;49.16;100772.81;5100606;28;20094;-78
2023/07/15 00:46:41;;;;;;;10.80;2.53;;;;;;;27.70;49.40;100771.75;5100921;28;20405;-78
2023/07/15 00:49:29;;;;;;;9.70;1.90;;;;;;;27.68;48.88;100773.41;5100338;28;20273;-78
2023/07/15 00:52:16;;;;;;;6.05;1.90;;;;;;;27.61;49.12;100769.53;5103734;28;20516;-78
2023/07/15 00:55:03;;;;;;;6.53;3.03;;;;;;;27.61;48.87;100774.31;5099894;28;20059;-78
2023/07/15 00:57:47;;;;;;;7.88;2.25;;;;;;;27.60;49.27;100769.94;5104915;28;20051;-78
2023/07/15 01:00:33;;;;;;;4.85;2.25;;;;;;;27.57;48.84;100768.03;5102768;28;20051;-78
2023/07/15 01:03:18;;;;;;;10.60;2.95;;;;;;;27.52;49.00;100765.72;5099872;28;20047;-78
2023/07/15 01:06:03;;;;;;;7.10;2.22;;;;;;;27.52;48.98;100766.53;5099025;28;20040;-78
2023/07/15 01:08:48;;;;;;;4.60;1.90;;;;;;;27.52;49.08;100768.53;5099586;28;20353;-78
2023/07/15 01:11:34;;;;;;;9.88;1.58;;;;;;;27.52;49.50;100758.16;5086754;28;20071;-78
2023/07/15 01:14:18;;;;;;;7.10;1.77;;;;;;;27.53;49.34;100761.72;5099263;28;20055;-78
2023/07/15 01:17:05;;;;;;;10.82;2.28;;;;;;;27.56;49.40;100764.44;5099350;28;20543;-78
2023/07/15 01:19:50;;;;;;;7.22;2.50;;;;;;;27.51;49.55;100759.34;5099755;28;20417;-78
2023/07/15 01:22:36;;;;;;;6.55;2.75;;;;;;;27.46;49.33;100768.22;5098822;28;20051;-78
2023/07/15 01:25:21;;;;;;;5.85;1.83;;;;;;;27.46;49.31;100771.00;5097969;28;20043;-78
2023/07/15 01:28:06;;;;;;;7.43;2.03;;;;;;;27.43;49.51;100771.06;5099515;28;20051;-78
2023/07/15 01:30:51;;;;;;;8.50;2.38;;;;;;;27.41;49.50;100771.50;5098554;28;20067;-78
2023/07/15 01:33:37;;;;;;;5.95;2.10;;;;;;;27.42;49.57;100769.50;5101962;28;20051;-78
2023/07/15 01:36:24;;;;;;;3.90;2.00;;;;;;;27.42;49.12;100769.50;5098310;28;20044;-78
2023/07/15 01:39:09;;;;;;;6.53;2.10;;;;;;;27.40;49.30;100771.91;5097412;28;20043;-78
2023/07/15 01:41:55;;;;;;;5.32;2.10;;;;;;;27.38;49.66;100769.53;5097327;28;20043;-78
2023/07/15 01:44:39;;;;;;;6.72;2.78;;;;;;;27.36;49.21;100779.59;5097498;28;20047;-78
2023/07/15 01:47:24;;;;;;;5.78;2.17;;;;;;;27.34;49.23;100773.63;5097049;28;20409;-78
2023/07/15 01:50:09;;;;;;;7.40;1.92;;;;;;;27.29;49.43;100771.34;5097945;28;20047;-78
2023/07/15 01:52:54;;;;;;;7.60;2.72;;;;;;;27.27;49.67;100773.78;5098465;28;20059;-78
2023/07/15 01:55:38;;;;;;;5.10;1.92;;;;;;;27.23;49.30;100774.63;5097573;28;20047;-78
2023/07/15 01:58:23;;;;;;;6.15;1.92;;;;;;;27.25;49.31;100765.81;5100897;28;20047;-78
2023/07/15 02:01:08;;;;;;;5.88;2.40;;;;;;;27.26;49.46;100766.63;5100106;28;20117;-78
2023/07/15 02:03:53;;;;;;;6.22;2.30;;;;;;;27.24;49.04;100759.44;5097249;28;20047;-78
2023/07/15 02:06:38;;;;;;;6.35;2.03;;;;;;;27.24;48.95;100753.88;5102056;28;20055;-78
2023/07/15 02:09:23;;;;;;;4.47;2.00;;;;;;;27.28;49.15;100758.59;5099507;28;20043;-78
2023/07/15 02:12:08;;;;;;;3.33;1.80;;;;;;;27.25;49.44;100765.81;5098232;28;20055;-78
2023/07/15 02:14:54;;;;;;;7.30;2.20;;;;;;;27.30;49.11;100756.94;5097600;28;20043;-78
2023/07/15 02:17:39;;;;;;;4.88;2.05;;;;;;;27.27;49.02;100762.63;5100650;28;20055;-78
2023/07/15 02:20:25;;;;;;;10.45;1.90;;;;;;;27.26;49.01;100761.03;5099169;28;20047;-78
2023/07/15 02:23:11;;;;;;;5.80;1.65;;;;;;;27.24;48.95;100759.44;5096979;28;20063;-78
2023/07/15 02:25:55;;;;;;;7.43;1.70;;;;;;;27.23;49.08;100757.88;5100774;28;20047;-78
2023/07/15 02:28:40;;;;;;;3.78;1.88;;;;;;;27.25;48.74;100754.66;5083177;28;20051;-78
2023/07/15 02:31:25;;;;;;;3.42;2.03;;;;;;;27.27;48.88;100745.84;5101401;28;20067;-78
2023/07/15 02:34:10;;;;;;;7.63;2.33;;;;;;;27.26;48.99;100756.22;5098944;28;20417;-78
2023/07/15 02:36:56;;;;;;;4.55;2.55;;;;;;;27.29;48.93;100743.41;5095650;28;20043;-78
2023/07/15 02:39:40;;;;;;;2.65;1.70;;;;;;;27.25;49.15;100746.28;5097349;28;20067;-78
2023/07/15 02:42:25;;;;;;;4.05;1.90;;;;;;;27.24;49.43;100755.88;5100396;28;20039;-78
2023/07/15 02:45:10;;;;;;;;;;;;;;;27.21;49.28;100754.72;5097580;28;20055;-78
2023/07/15 02:47:55;;;;;;;4.18;1.58;;;;;;;27.20;49.74;100753.16;5096846;28;19916;-78
2023/07/15 02:50:40;;;;;;;6.50;2.92;;;;;;;27.21;49.62;100757.53;5097804;28;20118;-78
2023/07/15 02:53:26;;;;;;;4.13;2.03;;;;;;;27.16;49.67;100754.44;5101554;28;20046;-78
2023/07/15 02:56:11;;;;;;;5.03;2.22;;;;;;;27.09;49.92;100762.94;5085393;28;20047;-78
2023/07/15 02:58:56;;;;;;;4.55;2.20;;;;;;;27.05;49.91;100748.25;5089230;28;20043;-78
2023/07/15 03:01:40;;;;;;;5.00;2.10;;;;;;;27.02;49.65;100752.66;5099184;28;20059;-78
2023/07/15 03:04:26;;;;;;;4.38;2.15;;;;;;;27.00;49.75;100752.31;5099929;28;20337;-78
2023/07/15 03:07:12;;;;;;;7.05;2.25;;;;;;;27.00;49.74;100749.53;5098680;28;20059;-78
2023/07/15 03:09:57;;;;;;;6.97;2.75;;;;;;;27.00;49.76;100748.75;5087854;28;20051;-78
2023/07/15 03:12:44;;;;;;;2.55;1.88;;;;;;;27.00;50.06;100752.31;5095889;28;20106;-78
2023/07/15 03:15:30;;;;;;;3.70;2.35;;;;;;;27.00;49.94;100752.31;5099098;28;20050;-78
2023/07/15 03:18:15;;;;;;;6.20;2.65;;;;;;;26.97;49.55;100747.59;5095070;28;20531;-78
2023/07/15 03:20:59;;;;;;;4.63;1.63;;;;;;;26.98;49.61;100753.94;5101734;28;20408;-78
2023/07/15 03:23:44;;;;;;;6.13;2.17;;;;;;;26.93;50.23;100752.44;5101583;28;20051;-78
2023/07/15 03:26:29;;;;;;;6.13;2.25;;;;;;;26.89;50.14;100764.88;5101030;28;20126;-78
2023/07/15 03:29:14;;;;;;;5.43;2.63;;;;;;;26.86;50.12;100763.72;5099782;28;20047;-78
2023/07/15 03:31:59;;;;;;;3.58;1.92;;;;;;;26.84;50.59;100763.34;5100100;28;20051;-78
2023/07/15 03:34:44;;;;;;;5.70;2.33;;;;;;;26.83;50.12;100756.19;5102492;22;20051;-79
2023/07/15 03:37:36;;;;;;;3.70;2.05;;;;;;;26.85;50.25;100758.56;5060102;28;20314;-77
2023/07/15 03:40:22;;;;;;;7.05;2.20;;;;;;;26.81;50.45;100758.63;5074637;28;20059;-78
2023/07/15 03:43:07;;;;;;;10.63;2.40;;;;;;;26.79;50.62;100766.63;5076524;28;20114;-77
2023/07/15 03:45:55;;;;;;;6.65;2.60;;;;;;;26.80;50.89;100759.84;5054769;28;20053;-79
2023/07/15 03:48:40;;;;;;;3.92;2.03;;;;;;;26.78;50.68;100754.66;5044221;28;20064;-77
2023/07/15 03:51:24;;;;;;;14.75;2.65;;;;;;;26.79;50.65;100755.47;5042569;28;20052;-78
2023/07/15 03:54:09;;;;;;;14.15;2.92;;;;;;;26.76;50.84;100759.13;5054787;28;20041;-77
2023/07/15 03:56:53;;;;;;;10.02;2.88;;;;;;;26.75;51.04;100747.16;5044132;28;20056;-77
2023/07/15 03:59:38;;;;;;;10.10;3.00;;;;;;;26.70;50.68;100750.44;5054315;28;20497;-78
2023/07/15 04:02:22;;;;;;;;;;;;;;;26.68;50.88;100761.22;5053705;28;20060;-80
2023/07/15 04:05:07;;;;;;;13.70;2.55;;;;;;;26.70;50.76;100761.59;5039890;28;19912;-79
2023/07/15 04:07:53;;;;;;;8.52;2.70;;;;;;;26.73;51.14;100765.53;5056629;28;20056;-78
2023/07/15 04:10:38;;;;;;;21.98;2.90;;;;;;;26.68;51.13;100761.22;5041967;28;20421;-77
2023/07/15 04:13:23;;;;;;;10.73;2.97;;;;;;;26.61;51.35;100754.97;5056435;28;20055;-77
2023/07/15 04:16:07;;;;;;;12.32;2.97;;;;;;;26.48;51.72;100753.97;5046566;28;20044;-77
2023/07/15 04:18:52;;;;;;;6.20;2.15;;;;;;;26.41;51.63;100757.69;5057764;28;20064;-75
2023/07/15 04:21:37;;;;;;;10.60;2.65;;;;;;;26.35;52.04;100753.81;5044757;28;20052;-78
2023/07/15 04:24:21;;;;;;;;;;;;;;;26.41;52.25;100756.91;5053540;28;20510;-75
2023/07/15 04:27:05;;;;;;;9.00;2.15;;;;;;;26.37;51.89;100749.38;5030205;28;19917;-77
2023/07/15 04:29:50;;;;;;;10.93;2.40;;;;;;;26.36;51.70;100755.38;5047563;28;20048;-77
2023/07/15 04:32:35;;;;;;;16.40;2.67;;;;;;;26.35;52.21;100757.38;5056899;28;20053;-77
2023/07/15 04:35:20;;;;;;;17.98;2.72;;;;;;;26.33;52.36;100751.41;5061136;28;20036;-79
2023/07/15 04:38:05;;;;;;;10.40;2.90;;;;;;;26.35;52.83;100753.81;5069537;28;20048;-77
2023/07/15 04:40:49;;;;;;;7.07;2.10;;;;;;;26.44;52.43;100751.25;5072699;28;20055;-80
2023/07/15 04:43:36;;;;;;;7.88;3.25;;;;;;;26.46;53.23;100753.63;5058651;28;20551;-84
2023/07/15 04:46:21;;;;;;;9.40;2.22;;;;;;;26.36;53.13;100739.41;5059262;28;20060;-84
2023/07/15 04:49:06;;;;;;;8.20;2.15;;;;;;;26.37;53.34;100745.78;5054632;28;20052;-84
2023/07/15 04:51:52;;;;;;;6.25;2.08;;;;;;;26.43;53.14;100748.88;5053082;28;20052;-82
2023/07/15 04:54:37;;;;;;;5.28;1.92;;;;;;;26.45;53.40;100752.06;5040389;28;20049;-82
2023/07/15 04:57:49;;;;;;;13.50;2.47;;;;;;;26.51;53.20;100753.16;5055859;28;20037;-84
2023/07/15 05:00:36;;;;;;;8.63;2.20;;;;;;;26.52;53.17;100757.50;5044845;28;20040;-83
2023/07/15 05:03:21;;;;;;;11.88;2.25;;;;;;;26.50;53.30;100752.38;5050550;28;20132;-79
2023/07/15 05:06:05;;;;;;;6.57;2.08;;;;;;;26.56;53.64;100758.25;5048375;28;20037;-79
2023/07/15 05:08:50;;;;;;;5.22;2.58;;;;;;;26.60;53.30;100764.56;5035925;28;20056;-82
2023/07/15 05:11:34;;;;;;;5.97;1.90;;;;;;;26.63;53.44;100760.91;5035887;28;20043;-81
2023/07/15 05:14:19;;;;;;;8.18;1.65;;;;;;;26.66;53.12;100758.09;5056688;28;20055;-83
2023/07/15 05:17:07;;;;;;;3.85;1.67;;;;;;;26.73;53.17;100769.09;5020842;28;20044;-82
2023/07/15 05:19:52;;;;;;;3.08;1.48;;;;;;;26.76;53.12;100767.47;5024250;28;20514;-83
2023/07/15 05:22:37;;;;;;;5.22;1.77;;;;;;;26.77;53.24;100775.41;5038634;28;20056;-82
2023/07/15 05:25:21;;;;;;;;;;;;;;;26.84;53.05;100780.09;5035424;28;20048;-81
2023/07/15 05:28:07;;;;;;;2.83;1.45;;;;;;;26.85;53.13;100778.88;5043052;28;20309;-82
2023/07/15 05:30:52;;;;;;;2.75;2.15;;;;;;;26.86;52.96;100772.09;5051571;28;20524;-80
2023/07/15 05:33:36;;;;;;;7.65;2.25;;;;;;;26.89;53.42;100781.63;5051535;28;20052;-83
2023/07/15 05:36:21;;;;;;;4.13;1.27;;;;;;;26.90;53.00;100770.06;5038706;28;20040;-81
2023/07/15 05:39:06;;;;;;;4.18;1.92;;;;;;;26.91;53.09;100776.44;5051802;28;20056;-80
2023/07/15 05:41:51;;;;;;;2.58;1.60;;;;;;;26.93;53.03;100780.34;5036673;28;20048;-82
2023/07/15 05:44:35;;;;;;;2.67;1.40;;;;;;;26.95;52.97;100775.16;5018768;28;20524;-83
2023/07/15 05:47:20;;;;;;;4.07;1.80;;;;;;;26.93;52.77;100776.78;5037812;28;20514;-83
2023/07/15 05:50:06;;;;;;;3.75;1.60;;;;;;;27.00;52.74;100771.88;5051817;28;20052;-83
2023/07/15 05:52:52;;;;;;;2.92;1.75;;;;;;;27.03;52.71;100773.00;5028533;28;20048;-85
2023/07/15 05:55:38;;;;;;;2.58;1.40;;;;;;;27.04;52.97;100778.16;5047942;28;20048;-84
2023/07/15 05:58:23;;;;;;;3.15;1.33;;;;;;;27.06;52.82;100775.75;5038447;28;20052;-83
2023/07/15 06:01:07;;;;;;;3.65;1.30;;;;;;;27.08;53.09;100775.31;5041419;28;20044;-84
2023/07/15 06:03:52;;;;;;;2.53;1.42;;;;;;;27.10;53.01;100776.47;5042210;28;20067;-84
2023/07/15 06:06:37;;;;;;;2.88;1.33;;;;;;;27.12;52.84;100776.81;5055997;28;20040;-86
2023/07/15 06:09:22;;;;;;;9.73;2.40;;;;;;;27.16;52.74;100782.34;5024290;28;20052;-83
2023/07/15 06:12:07;;;;;;;7.22;2.22;;;;;;;27.15;52.85;100777.97;5024198;28;20048;-83
2023/07/15 06:14:52;;;;;;;11.52;2.92;;;;;;;27.19;52.99;100781.50;5032401;28;20506;-83
2023/07/15 06:17:38;;;;;;;4.25;2.50;;;;;;;27.20;53.05;100792.25;5041885;28;20036;-83
2023/07/15 06:20:23;;;;;;;6.75;2.30;;;;;;;27.22;52.67;100794.63;5038512;28;20071;-84
2023/07/15 06:23:08;;;;;;;1.55;1.08;;;;;;;27.24;52.79;100792.97;5041903;28;20533;-84
2023/07/15 06:25:55;;;;;;;2.25;1.35;;;;;;;27.29;52.71;100802.06;5051763;28;20052;-85
2023/07/15 06:28:40;;;;;;;2.35;1.40;;;;;;;27.30;52.66;100800.84;5037376;28;20060;-83
2023/07/15 06:31:26;;;;;;;5.97;2.22;;;;;;;27.32;52.57;100799.22;5049767;28;20048;-83
2023/07/15 06:34:11;;;;;;;3.55;2.20;;;;;;;27.35;52.52;100806.72;5055424;28;20067;-84
2023/07/15 06:36:55;;;;;;;2.63;1.20;;;;;;;27.39;52.74;100806.66;5052997;28;20056;-82
2023/07/15 06:39:40;;;;;;;3.17;1.45;;;;;;;27.39;52.32;100810.22;5063209;28;20513;-83
2023/07/15 06:42:25;;;;;;;2.08;1.25;;;;;;;27.44;52.08;100815.31;5057771;28;20055;-83
2023/07/15 06:45:11;;;;;;;3.13;1.40;;;;;;;27.46;52.48;100812.13;5038764;28;20410;-83
2023/07/15 06:47:55;;;;;;;4.97;1.48;;;;;;;27.48;52.01;100809.69;5043501;28;20052;-81
2023/07/15 06:50:40;;;;;;;3.60;1.73;;;;;;;27.51;52.28;100811.66;5043928;28;20533;-82
2023/07/15 06:53:25;;;;;;;4.28;1.63;;;;;;;27.54;52.25;100813.56;5043284;28;20417;-84
2023/07/15 06:56:10;;;;;;;5.90;2.20;;;;;;;27.57;51.69;100809.94;5057639;28;20056;-83
2023/07/15 06:58:55;;;;;;;2.05;1.00;;;;;;;27.58;51.82;100808.72;5057606;28;20409;-82
2023/07/15 07:01:39;;;;;;;6.78;2.10;;;;;;;27.61;51.83;100808.66;5057629;28;20047;-84
2023/07/15 07:04:24;;;;;;;17.67;2.58;;;;;;;27.63;52.11;100808.22;5035052;28;20049;-82
2023/07/15 07:07:08;;;;;;;3.55;1.50;;;;;;;27.66;52.18;100807.34;5030681;28;20041;-84
2023/07/15 07:09:54;;;;;;;3.13;1.10;;;;;;;27.69;51.97;100812.06;5039387;28;20038;-83
2023/07/15 07:12:39;;;;;;;1.40;0.95;;;;;;;27.70;52.02;100812.88;5049204;28;20048;-83
2023/07/15 07:15:25;;;;;;;2.83;1.60;;;;;;;27.73;51.56;100807.22;5051528;28;20055;-81
2023/07/15 07:18:11;;;;;;;1.85;1.13;;;;;;;27.76;51.61;100806.34;5051228;28;20073;-83
2023/07/15 07:21:01;;;;;;;2.53;1.10;;;;;;;27.78;51.41;100809.50;5065854;28;20051;-82
2023/07/15 07:23:46;;;;;;;2.60;1.20;;;;;;;27.81;51.48;100807.84;5051546;28;20040;-83
2023/07/15 07:26:31;;;;;;;8.82;1.90;;;;;;;27.83;51.58;100817.41;5018763;28;20422;-81
2023/07/15 07:29:15;;;;;;;3.08;1.65;;;;;;;27.85;51.61;100814.94;5024396;28;20060;-82
2023/07/15 07:32:00;;;;;;;2.33;1.05;;;;;;;27.87;51.55;100812.50;5032972;28;20060;-83
2023/07/15 07:34:45;;;;;;;5.35;1.85;;;;;;;27.91;51.57;100812.44;5042185;28;20516;-82
2023/07/15 07:37:30;;;;;;;2.97;1.58;;;;;;;27.93;51.38;100808.00;5057510;28;20056;-84
2023/07/15 07:40:15;;;;;;;4.20;1.40;;;;;;;27.94;51.22;100809.56;5054893;28;20107;-83
2023/07/15 07:43:00;;;;;;;3.47;2.58;;;;;;;27.97;51.25;100810.72;5047801;28;20056;-84
2023/07/15 07:45:49;;;;;;;1.80;1.00;;;;;;;28.00;51.18;100810.63;5039284;28;20056;-83
2023/07/15 07:48:34;;;;;;;8.70;1.90;;;;;;;28.04;51.46;100804.94;5054500;28;20052;-82
2023/07/15 07:51:19;;;;;;;1.90;1.10;;;;;;;28.05;51.23;100812.91;5041994;28;20044;-81
2023/07/15 07:54:04;;;;;;;5.00;2.05;;;;;;;28.07;51.29;100804.88;5052438;28;20075;-80
2023/07/15 07:56:49;;;;;;;4.95;1.90;;;;;;;28.11;51.18;100809.59;5052259;28;20091;-83
2023/07/15 07:59:34;;;;;;;4.22;1.75;;;;;;;28.12;51.15;100795.22;5042088;28;20059;-81
2023/07/15 08:02:18;;;;;;;2.35;1.23;;;;;;;28.14;51.28;100794.81;5057241;28;20492;-80
2023/07/15 08:05:08;;;;;;;4.03;1.23;;;;;;;28.20;51.08;100805.03;5041249;28;20413;-83
2023/07/15 08:07:53;;;;;;;6.97;3.90;;;;;;;28.28;52.32;100812.06;5046108;28;20044;-82
2023/07/15 08:10:39;;;;;;;5.30;2.03;;;;;;;28.40;51.63;100808.56;5046208;28;20540;-82
2023/07/15 08:13:24;;;;;;;1.73;1.25;;;;;;;28.39;50.86;100809.00;5058241;28;20055;-83
2023/07/15 08:16:36;;;;;;;3.88;1.40;;;;;;;28.41;50.61;100807.34;5056283;28;20048;-82
2023/07/15 08:19:21;;;;;;;1.35;0.90;;;;;;;28.41;50.69;100814.94;5046012;28;20048;-82
2023/07/15 08:22:07;;;;;;;5.22;1.23;;;;;;;28.43;50.69;100815.31;5039323;28;20048;-83
2023/07/15 08:24:52;;;;;;;3.97;1.60;;;;;;;28.43;50.66;100818.91;5022211;28;20048;-81
2023/07/15 08:27:37;;;;;;;2.00;1.17;;;;;;;28.45;50.37;100822.03;5029988;28;20044;-81
2023/07/15 08:30:22;;;;;;;2.58;1.10;;;;;;;28.48;50.36;100823.97;5043753;28;20048;-83
2023/07/15 08:33:07;;;;;;;2.53;1.23;;;;;;;28.49;50.31;100819.97;5034022;28;20056;-81
2023/07/15 08:35:52;;;;;;;3.53;1.73;;;;;;;28.53;50.15;100813.47;5042072;28;20055;-83
2023/07/15 08:38:37;;;;;;;9.52;2.72;;;;;;;28.64;51.59;100814.81;5028031;28;20040;-81
2023/07/15 08:41:24;;;;;;;4.50;1.50;;;;;;;28.66;50.95;100823.53;5038310;28;20068;-82
2023/07/15 08:44:10;;;;;;;2.50;1.05;;;;;;;28.69;50.32;100819.09;5037273;28;20048;-80
2023/07/15 08:46:55;;;;;;;11.77;5.20;;;;;;;28.95;52.14;100817.28;5024904;28;20433;-80
2023/07/15 08:49:40;;;;;;;4.50;1.55;;;;;;;29.14;51.23;100833.19;5021307;28;20517;-82
2023/07/15 08:52:26;;;;;;;3.58;1.30;;;;;;;29.02;49.66;100837.47;5032496;28;20044;-81
2023/07/15 08:55:12;;;;;;;3.17;1.52;;;;;;;28.97;49.50;100834.41;5020295;28;20715;-82
2023/07/15 08:57:59;;;;;;;6.88;2.78;;;;;;;29.01;50.22;100837.91;5020600;28;20048;-82
2023/07/15 09:00:44;;;;;;;5.65;1.65;;;;;;;29.03;49.84;100846.69;5018441;28;20072;-81
2023/07/15 09:03:29;;;;;;;6.43;1.65;;;;;;;29.07;49.79;100836.16;5022579;28;20048;-82
2023/07/15 09:06:14;;;;;;;2.83;1.55;;;;;;;29.06;49.30;100840.19;5032416;28;20087;-80
2023/07/15 09:08:59;;;;;;;1.75;0.98;;;;;;;29.04;49.25;100829.44;5018814;28;20411;-79
2023/07/15 09:11:44;;;;;;;2.90;1.25;;;;;;;29.04;49.37;100831.47;5023753;28;20060;-81
2023/07/15 09:14:29;;;;;;;2.90;1.48;;;;;;;29.04;49.12;100832.25;5057236;28;20043;-79
2023/07/15 09:17:16;;;;;;;5.68;1.42;;;;;;;29.06;49.19;100834.59;5039865;28;20056;-80
2023/07/15 09:20:16;;;;;;;3.00;1.45;;;;;;;29.09;48.86;100834.50;5068169;28;20511;-81
2023/07/15 09:23:01;;;;;;;3.38;1.20;;;;;;;29.07;49.19;100831.34;5047205;28;20048;-84
2023/07/15 09:25:50;;;;;;;3.85;1.30;;;;;;;29.13;48.91;100835.22;5045882;28;20052;-82
2023/07/15 09:28:38;;;;;;;4.40;1.30;;;;;;;29.15;48.78;100831.97;5034656;28;20052;-81
2023/07/15 09:31:25;;;;;;;2.78;1.20;;;;;;;29.16;48.93;100828.72;5060405;28;20047;-82
2023/07/15 09:34:10;;;;;;;4.60;1.60;;;;;;;29.15;48.64;100827.16;5072514;28;20056;-82
2023/07/15 09:36:55;;;;;;;1.70;1.27;;;;;;;29.21;48.73;100841.41;5080069;22;20048;-81
2023/07/15 09:39:40;;;;;;;2.25;1.50;;;;;;;29.22;48.75;100840.16;5092105;28;20047;-81
2023/07/15 09:42:28;;;;;;;2.53;1.20;;;;;;;29.25;48.66;100833.72;5098844;28;20051;-81
2023/07/15 09:45:39;;;;;;;4.57;1.38;;;;;;;29.29;48.55;100842.81;5107790;28;20051;-80
2023/07/15 09:48:30;;;;;;;5.05;1.33;;;;;;;29.31;48.60;100840.34;5107678;28;20043;-80
2023/07/15 09:51:17;;;;;;;3.17;1.30;;;;;;;29.34;48.29;100845.09;5107976;28;20523;-80
2023/07/15 09:54:03;;;;;;;4.80;1.65;;;;;;;29.40;48.22;100846.16;5106293;28;20054;-80
2023/07/15 09:56:51;;;;;;;3.75;1.80;;;;;;;29.48;47.82;100847.50;5096085;28;20054;-80
2023/07/15 09:59:46;;;;;;;1.73;1.13;;;;;;;29.52;47.68;100851.00;5108225;28;20110;-80
2023/07/15 10:02:42;;;;;;;3.30;1.20;;;;;;;29.53;48.11;100844.16;5108197;28;20046;-80
2023/07/15 10:05:28;;;;;;;3.92;1.40;;;;;;;29.67;47.64;100852.19;5105501;28;20119;-80
2023/07/15 10:08:13;;;;;;;4.18;1.20;;;;;;;29.66;47.62;100845.00;5095815;28;20055;-81
2023/07/15 10:10:58;;;;;;;5.45;1.80;;;;;;;29.76;47.51;100848.75;5090131;28;20054;-80
2023/07/15 10:13:43;;;;;;;7.18;2.25;;;;;;;29.80;47.23;100845.84;5082445;28;20055;-80
2023/07/15 10:16:28;;;;;;;3.25;1.40;;;;;;;30.05;46.34;100843.94;5096836;28;20047;-81
2023/07/15 10:19:49;;;;;;;2.50;1.50;;;;;;;30.05;46.53;100849.53;5106931;28;20054;-81
2023/07/15 10:22:34;;;;;;;1.52;0.98;;;;;;;30.18;46.31;100839.09;5107450;28;20051;-81
2023/07/15 10:25:20;;;;;;;9.65;2.40;;;;;;;30.19;46.06;100837.09;5095014;28;20055;-80
2023/07/15 10:28:10;;;;;;;1.73;1.35;;;;;;;30.31;46.40;100827.91;5109509;28;20233;-80
2023/07/15 10:31:05;;;;;;;3.85;1.58;;;;;;;30.35;46.18;100830.59;5095617;28;20039;-81
2023/07/15 10:34:04;;;;;;;3.30;1.58;;;;;;;30.27;45.76;100834.88;5104273;28;20047;-78
2023/07/15 10:36:48;;;;;;;2.20;1.67;;;;;;;30.19;46.50;100834.28;5101190;28;20054;-79
2023/07/15 10:39:33;;;;;;;5.05;1.63;;;;;;;30.13;46.77;100820.03;5104100;28;20039;-79
2023/07/15 10:42:19;;;;;;;2.45;1.27;;;;;;;30.21;46.23;100826.22;5104392;28;20531;-80
2023/07/15 10:45:03;;;;;;;6.63;1.70;;;;;;;30.21;46.57;100826.22;5103523;28;20047;-78
2023/07/15 10:47:48;;;;;;;10.52;2.30;;;;;;;30.65;45.26;100821.66;5100875;28;20511;-79
2023/07/15 10:50:35;;;;;;;3.38;1.60;;;;;;;30.56;45.35;100821.53;5079849;28;20036;-80
2023/07/15 10:53:26;;;;;;;3.17;1.75;;;;;;;30.40;45.92;100816.00;5074862;28;20123;-80
2023/07/15 10:56:12;;;;;;;2.13;1.30;;;;;;;30.36;46.18;100823.75;5072793;28;20044;-79
2023/07/15 10:58:57;;;;;;;6.05;1.48;;;;;;;30.32;46.47;100823.88;5069245;28;20051;-79
2023/07/15 11:01:43;;;;;;;5.18;2.15;;;;;;;30.35;46.25;100811.75;5073937;28;20043;-78
2023/07/15 11:04:28;;;;;;;6.68;1.35;;;;;;;30.30;46.30;100814.31;5065854;28;20052;-79
2023/07/15 11:07:13;;;;;;;6.30;1.85;;;;;;;30.81;45.64;100810.28;5084364;28;20043;-79
2023/07/15 11:09:58;;;;;;;5.88;3.00;;;;;;;31.89;43.58;100816.56;5075407;28;20516;-78
2023/07/15 11:12:43;;;;;;;11.48;2.85;;;;;;;31.51;43.25;100811.09;5073026;28;20060;-76
2023/07/15 11:15:29;;;;;;;9.30;2.60;;;;;;;31.42;43.46;100812.59;5080158;28;20721;-77
2023/07/15 11:18:15;;;;;;;8.40;3.10;;;;;;;31.41;44.16;100816.66;5056394;28;20413;-77
2023/07/15 11:21:01;;;;;;;7.60;2.83;;;;;;;31.03;45.35;100812.41;5074717;28;20047;-76
2023/07/15 11:23:46;;;;;;;4.68;2.30;;;;;;;30.57;45.45;100800.66;5072286;28;20043;-76
2023/07/15 11:26:30;;;;;;;5.07;2.70;;;;;;;31.46;44.51;100801.22;5080454;28;20051;-76
2023/07/15 11:29:20;;;;;;;4.68;2.80;;;;;;;32.04;42.50;100795.06;5070389;28;20044;-76
2023/07/15 11:32:06;;;;;;;6.75;2.70;;;;;;;32.42;40.82;100786.34;5086185;28;20444;-76
2023/07/15 11:34:51;;;;;;;5.00;2.60;;;;;;;32.45;40.86;100785.44;5081291;28;20051;-76
2023/07/15 11:37:42;;;;;;;8.20;2.67;;;;;;;32.46;40.94;100784.94;5065510;28;20039;-75
2023/07/15 11:40:29;;;;;;;5.53;3.30;;;;;;;32.14;40.77;100775.00;5072384;28;20039;-76
2023/07/15 11:43:15;;;;;;;6.53;3.05;;;;;;;31.88;41.43;100776.38;5067134;28;20056;-76
2023/07/15 11:46:01;;;;;;;9.60;3.20;;;;;;;30.97;44.46;100767.22;5074036;28;20044;-76
2023/07/15 11:48:46;;;;;;;6.50;2.75;;;;;;;30.97;44.52;100761.59;5068563;28;20044;-76
2023/07/15 11:51:32;;;;;;;9.93;2.90;;;;;;;31.13;44.12;100761.47;5070288;28;20043;-75
2023/07/15 11:54:17;;;;;;;8.25;3.28;;;;;;;31.27;43.83;100746.13;5071470;28;20051;-76
2023/07/15 11:57:01;;;;;;;9.35;2.70;;;;;;;31.42;45.34;100752.78;5080075;28;20042;-76
2023/07/15 11:59:49;;;;;;;5.45;2.05;;;;;;;31.66;43.26;100751.09;5079326;28;20055;-76
2023/07/15 12:02:33;;;;;;;9.25;3.20;;;;;;;32.18;42.86;100744.66;5070560;28;20520;-76
2023/07/15 12:05:18;;;;;;;5.90;2.63;;;;;;;32.53;42.01;100748.06;5080542;28;20054;-76
2023/07/15 12:08:13;;;;;;;10.48;2.70;;;;;;;32.46;41.58;100739.13;5071429;28;20051;-77
2023/07/15 12:11:00;;;;;;;4.85;3.45;;;;;;;31.81;42.55;100738.06;5087528;28;20044;-77
2023/07/15 12:13:44;;;;;;;12.02;3.17;;;;;;;32.02;42.51;100728.00;5066083;28;20051;-76
2023/07/15 12:16:31;;;;;;;6.80;2.70;;;;;;;32.18;42.08;100727.00;5071044;28;20119;-77
2023/07/15 12:19:18;;;;;;;6.03;3.00;;;;;;;32.52;41.25;100726.00;5074280;28;20059;-76
2023/07/15 12:22:03;;;;;;;7.28;2.92;;;;;;;32.66;40.85;100725.44;5069364;28;20055;-76
2023/07/15 12:24:48;;;;;;;6.43;3.05;;;;;;;32.70;41.61;100720.44;5057116;28;20052;-76
2023/07/15 12:27:33;;;;;;;6.45;3.17;;;;;;;32.38;41.56;100720.97;5076727;28;20417;-76
2023/07/15 12:30:18;;;;;;;9.63;3.00;;;;;;;32.66;40.72;100708.53;5066857;28;20520;-76
2023/07/15 12:33:02;;;;;;;8.98;2.75;;;;;;;32.80;40.28;100713.56;5070739;28;20055;-75
2023/07/15 12:35:47;;;;;;;7.65;2.47;;;;;;;31.83;42.23;100710.25;5068895;28;20043;-75
2023/07/15 12:38:33;;;;;;;12.05;2.45;;;;;;;30.98;44.56;100709.81;5075905;28;20043;-75
2023/07/15 12:41:18;;;;;;;9.93;3.28;;;;;;;30.93;45.31;100716.00;5075613;28;20044;-75
2023/07/15 12:44:03;;;;;;;6.05;2.53;;;;;;;31.90;43.23;100714.03;5080950;28;20768;-75
2023/07/15 12:46:48;;;;;;;8.13;3.22;;;;;;;32.42;41.28;100715.94;5076873;28;20051;-76
2023/07/15 12:49:33;;;;;;;19.33;3.20;;;;;;;32.45;41.91;100704.56;5083675;28;20051;-75
2023/07/15 12:52:17;;;;;;;7.22;3.20;;;;;;;32.65;40.89;100712.59;5072112;28;20044;-76
2023/07/15 12:55:04;;;;;;;11.00;2.83;;;;;;;32.93;39.76;100714.19;5079539;28;20528;-76